createdAt,value
2022-10-22T00:02:21.551Z,17.92
2022-10-22T00:04:49.690Z,19.25
2022-10-22T00:07:18.123Z,18.30
2022-10-22T00:09:45.263Z,19.60
2022-10-22T00:12:12.579Z,19.88
2022-10-22T00:14:39.774Z,18.48
2022-10-22T00:17:10.567Z,18.50
2022-10-22T00:19:38.363Z,19.65
2022-10-22T00:22:07.856Z,17.77
2022-10-22T00:24:35.322Z,18.60
2022-10-22T00:27:02.498Z,18.13
2022-10-22T00:29:29.427Z,18.23
2022-10-22T00:34:28.279Z,17.87
2022-10-22T00:36:54.949Z,18.27
2022-10-22T00:39:23.986Z,17.92
2022-10-22T00:41:52.775Z,18.40
2022-10-22T00:44:56.974Z,18.10
2022-10-22T00:47:25.394Z,20.30
2022-10-22T00:49:53.757Z,18.95
2022-10-22T00:52:21.662Z,17.27
2022-10-22T00:54:48.793Z,18.77
2022-10-22T00:57:17.119Z,17.92
2022-10-22T00:59:43.866Z,18.52
2022-10-22T01:02:10.505Z,19.02
2022-10-22T01:04:37.331Z,18.77
2022-10-22T01:07:04.398Z,18.40
2022-10-22T01:09:44.602Z,18.88
2022-10-22T01:12:34.725Z,18.33
2022-10-22T01:15:33.580Z,18.25
2022-10-22T01:18:08.111Z,18.85
2022-10-22T01:21:33.206Z,17.77
2022-10-22T01:24:55.211Z,16.70
2022-10-22T01:27:40.056Z,17.65
2022-10-22T01:30:09.569Z,18.95
2022-10-22T01:32:41.599Z,18.65
2022-10-22T01:35:11.205Z,19.55
2022-10-22T01:37:46.476Z,17.63
2022-10-22T01:40:15.942Z,18.73
2022-10-22T01:42:42.931Z,17.02
2022-10-22T01:45:13.598Z,18.13
2022-10-22T01:48:09.590Z,17.65
2022-10-22T01:51:27.195Z,18.67
2022-10-22T01:57:29.838Z,18.13
2022-10-22T02:00:07.759Z,17.73
2022-10-22T02:03:08.870Z,17.75
2022-10-22T02:05:44.435Z,17.42
2022-10-22T02:08:24.316Z,17.63
2022-10-22T02:10:52.665Z,20.05
2022-10-22T02:13:27.773Z,18.90
2022-10-22T02:15:57.026Z,17.65
2022-10-22T02:18:28.089Z,18.00
2022-10-22T02:20:55.158Z,18.10
2022-10-22T02:23:22.151Z,19.27
2022-10-22T02:26:00.210Z,17.75
2022-10-22T02:28:37.639Z,18.48
2022-10-22T02:31:15.949Z,17.17
2022-10-22T02:33:48.195Z,18.48
2022-10-22T02:36:16.542Z,17.92
2022-10-22T02:38:43.510Z,18.35
2022-10-22T02:41:10.526Z,18.45
2022-10-22T02:43:45.547Z,18.00
2022-10-22T02:46:12.458Z,18.73
2022-10-22T02:48:39.044Z,20.02
2022-10-22T02:51:06.073Z,18.70
2022-10-22T02:53:33.225Z,18.83
2022-10-22T02:56:00.227Z,18.73
2022-10-22T02:58:26.803Z,17.52
2022-10-22T03:00:53.427Z,18.45
2022-10-22T03:03:20.066Z,17.23
2022-10-22T03:05:46.658Z,17.30
2022-10-22T03:08:13.335Z,18.02
2022-10-22T03:10:39.865Z,18.25
2022-10-22T03:13:06.432Z,18.70
2022-10-22T03:15:33.238Z,18.88
2022-10-22T03:17:59.827Z,19.50
2022-10-22T03:20:26.903Z,19.60
2022-10-22T03:22:53.629Z,19.80
2022-10-22T03:25:24.008Z,18.98
2022-10-22T03:27:52.434Z,18.45
2022-10-22T03:30:20.432Z,20.75
2022-10-22T03:32:47.153Z,17.52
2022-10-22T03:35:13.749Z,17.95
2022-10-22T03:37:40.928Z,19.83
2022-10-22T03:40:09.033Z,18.92
2022-10-22T03:42:35.612Z,18.23
2022-10-22T03:45:02.403Z,18.75
2022-10-22T03:47:28.980Z,19.20
2022-10-22T03:49:55.571Z,17.15
2022-10-22T03:52:22.343Z,17.65
2022-10-22T03:54:48.919Z,18.55
2022-10-22T03:57:16.038Z,17.83
2022-10-22T03:59:45.094Z,18.00
2022-10-22T04:02:13.039Z,18.70
2022-10-22T04:04:40.166Z,17.80
2022-10-22T04:07:07.575Z,19.98
2022-10-22T04:09:34.665Z,17.77
2022-10-22T04:12:01.349Z,18.50
2022-10-22T04:14:28.074Z,19.40
2022-10-22T04:16:55.116Z,19.55
2022-10-22T04:19:21.722Z,18.60
2022-10-22T04:21:48.515Z,18.27
2022-10-22T04:24:15.452Z,17.83
2022-10-22T04:26:42.389Z,17.80
2022-10-22T04:29:13.397Z,18.50
2022-10-22T04:31:42.610Z,19.02
2022-10-22T04:34:09.374Z,19.70
2022-10-22T04:36:36.000Z,19.73
2022-10-22T04:39:05.243Z,19.35
2022-10-22T04:41:35.236Z,18.77
2022-10-22T04:44:02.547Z,18.13
2022-10-22T04:46:33.273Z,18.85
2022-10-22T04:48:59.979Z,19.40
2022-10-22T04:51:27.881Z,19.63
2022-10-22T04:53:54.869Z,20.08
2022-10-22T04:56:24.950Z,20.85
2022-10-22T04:58:57.327Z,19.75
2022-10-22T05:01:26.441Z,19.42
2022-10-22T05:03:55.547Z,19.80
2022-10-22T05:06:23.358Z,19.10
2022-10-22T05:08:55.577Z,19.27
2022-10-22T05:11:26.124Z,18.73
2022-10-22T05:13:52.972Z,20.20
2022-10-22T05:16:19.539Z,20.60
2022-10-22T05:18:46.342Z,19.42
2022-10-22T05:21:16.282Z,19.88
2022-10-22T05:23:44.984Z,19.52
2022-10-22T05:26:13.311Z,19.20
2022-10-22T05:28:40.458Z,19.58
2022-10-22T05:31:09.119Z,20.75
2022-10-22T05:33:35.697Z,20.85
2022-10-22T05:36:04.425Z,18.60
2022-10-22T05:38:32.467Z,19.27
2022-10-22T05:41:08.268Z,18.15
2022-10-22T05:43:35.820Z,19.02
2022-10-22T05:46:05.510Z,18.48
2022-10-22T05:51:06.039Z,18.80
2022-10-22T05:53:34.471Z,18.65
2022-10-22T05:56:07.201Z,18.00
2022-10-22T05:58:34.151Z,16.58
2022-10-22T06:01:06.260Z,17.60
2022-10-22T06:03:33.250Z,16.83
2022-10-22T06:06:02.975Z,18.45
2022-10-22T06:08:30.612Z,17.65
2022-10-22T06:10:57.781Z,17.35
2022-10-22T06:13:24.383Z,18.40
2022-10-22T06:15:53.521Z,19.13
2022-10-22T06:18:20.151Z,17.77
2022-10-22T06:20:47.684Z,18.02
2022-10-22T06:23:15.331Z,17.77
2022-10-22T06:25:42.672Z,18.50
2022-10-22T06:28:09.674Z,18.17
2022-10-22T06:30:41.804Z,19.30
2022-10-22T06:33:11.023Z,16.60
2022-10-22T06:35:37.635Z,16.98
2022-10-22T06:38:04.279Z,15.75
2022-10-22T06:40:30.825Z,14.57
2022-10-22T06:43:01.960Z,14.18
2022-10-22T06:45:28.962Z,14.05
2022-10-22T06:47:55.830Z,13.68
2022-10-22T06:50:22.467Z,12.65
2022-10-22T06:52:49.047Z,11.80
2022-10-22T06:55:15.824Z,12.02
2022-10-22T06:57:43.052Z,10.27
2022-10-22T07:00:10.613Z,10.95
2022-10-22T07:02:37.227Z,10.55
2022-10-22T07:05:04.036Z,10.40
2022-10-22T07:07:30.683Z,9.70
2022-10-22T07:09:57.498Z,9.13
2022-10-22T07:12:24.080Z,8.95
2022-10-22T07:14:50.743Z,9.25
2022-10-22T07:17:17.305Z,8.50
2022-10-22T07:19:45.303Z,8.13
2022-10-22T07:22:13.956Z,7.88
2022-10-22T07:24:40.494Z,7.13
2022-10-22T07:27:09.444Z,6.82
2022-10-22T07:29:37.613Z,5.97
2022-10-22T07:32:04.544Z,6.43
2022-10-22T07:34:31.384Z,6.00
2022-10-22T07:36:58.168Z,6.95
2022-10-22T07:39:25.883Z,6.97
2022-10-22T07:41:53.075Z,5.82
2022-10-22T07:44:19.717Z,5.13
2022-10-22T07:46:48.855Z,5.18
2022-10-22T07:49:15.688Z,5.15
2022-10-22T07:51:42.341Z,5.03
2022-10-22T07:54:08.982Z,4.53
2022-10-22T07:56:35.579Z,4.40
2022-10-22T08:01:33.855Z,4.55
2022-10-22T08:04:00.542Z,4.30
2022-10-22T08:06:27.182Z,4.53
2022-10-22T08:08:53.827Z,4.38
2022-10-22T08:11:20.667Z,4.35
2022-10-22T08:13:47.363Z,4.10
2022-10-22T08:16:15.194Z,4.18
2022-10-22T08:18:42.074Z,3.22
2022-10-22T08:21:08.748Z,3.30
2022-10-22T08:23:35.617Z,3.78
2022-10-22T08:26:03.096Z,3.42
2022-10-22T08:28:31.224Z,3.75
2022-10-22T08:30:57.869Z,4.65
2022-10-22T08:43:54.888Z,3.20
2022-10-22T08:46:54.366Z,3.28
2022-10-22T08:49:26.186Z,8.20
2022-10-22T08:51:53.361Z,12.52
2022-10-22T08:54:59.363Z,10.10
2022-10-22T08:58:16.157Z,8.05
2022-10-22T09:00:47.683Z,9.02
2022-10-22T09:03:56.207Z,7.22
2022-10-22T09:06:25.949Z,8.30
2022-10-22T09:08:53.884Z,7.95
2022-10-22T09:11:32.520Z,7.78
2022-10-22T09:14:00.602Z,9.32
2022-10-22T09:17:02.141Z,6.72
2022-10-22T09:19:40.019Z,9.52
2022-10-22T09:23:17.067Z,6.47
2022-10-22T09:25:45.450Z,6.80
2022-10-22T09:28:12.791Z,6.70
2022-10-22T09:30:42.535Z,5.93
2022-10-22T09:33:31.591Z,5.35
2022-10-22T09:36:04.567Z,3.72
2022-10-22T09:38:39.942Z,5.07
2022-10-22T09:41:09.590Z,4.40
2022-10-22T09:43:36.575Z,3.58
2022-10-22T09:46:14.370Z,4.40
2022-10-22T09:48:43.277Z,2.83
2022-10-22T09:51:48.177Z,3.33
2022-10-22T09:54:26.844Z,4.13
2022-10-22T09:57:03.182Z,3.55
2022-10-22T09:59:32.771Z,2.78
2022-10-22T10:02:13.725Z,2.25
2022-10-22T10:04:52.300Z,2.78
2022-10-22T10:07:30.106Z,3.22
2022-10-22T10:09:57.279Z,1.90
2022-10-22T10:15:47.117Z,1.17
2022-10-22T10:18:47.482Z,0.82
2022-10-22T10:21:56.374Z,0.73
2022-10-22T10:24:37.797Z,1.08
2022-10-22T10:27:44.945Z,2.13
2022-10-22T10:30:21.174Z,1.45
2022-10-22T10:33:26.606Z,2.15
2022-10-22T10:36:39.597Z,1.48
2022-10-22T10:39:55.160Z,1.83
2022-10-22T10:42:36.973Z,1.23
2022-10-22T10:45:37.727Z,1.33
2022-10-22T10:54:49.788Z,2.75
2022-10-22T11:00:55.501Z,2.92
2022-10-22T11:03:58.594Z,2.30
2022-10-22T11:06:26.638Z,2.53
2022-10-22T11:11:59.543Z,1.67
2022-10-22T11:15:18.314Z,3.22
2022-10-22T11:17:48.131Z,4.07
2022-10-22T11:27:04.694Z,2.53
2022-10-22T11:29:39.221Z,4.78
2022-10-22T11:32:10.870Z,5.45
2022-10-22T11:34:54.615Z,4.50
2022-10-22T11:37:24.129Z,3.83
2022-10-22T11:40:05.481Z,4.35
2022-10-22T11:42:37.254Z,7.55
2022-10-22T11:45:28.729Z,4.57
2022-10-22T11:48:19.351Z,4.38
2022-10-22T11:51:04.067Z,10.45
2022-10-22T11:53:39.134Z,5.93
2022-10-22T11:56:37.264Z,4.47
2022-10-22T11:59:08.010Z,3.10
2022-10-22T12:01:42.765Z,3.60
2022-10-22T12:04:22.015Z,3.05
2022-10-22T12:07:31.723Z,3.83
2022-10-22T12:09:58.814Z,3.67
2022-10-22T12:12:25.638Z,4.50
2022-10-22T12:14:57.990Z,3.05
2022-10-22T12:20:02.479Z,3.08
2022-10-22T12:22:32.248Z,3.55
2022-10-22T12:25:09.917Z,3.95
2022-10-22T12:27:39.492Z,2.55
2022-10-22T12:30:24.322Z,2.85
2022-10-22T12:32:57.495Z,3.15
2022-10-22T12:35:26.697Z,3.17
2022-10-22T12:38:13.129Z,3.53
2022-10-22T12:40:45.774Z,2.63
2022-10-22T12:43:17.479Z,2.65
2022-10-22T12:45:46.266Z,3.33
2022-10-22T12:48:28.354Z,3.25
2022-10-22T12:50:58.602Z,2.83
2022-10-22T12:53:32.481Z,2.60
2022-10-22T12:56:07.600Z,3.05
2022-10-22T12:58:51.715Z,2.97
2022-10-22T13:01:19.005Z,3.65
2022-10-22T13:03:51.093Z,3.03
2022-10-22T13:06:26.213Z,2.83
2022-10-22T13:09:15.161Z,2.90
2022-10-22T13:11:49.853Z,3.08
2022-10-22T13:14:38.240Z,2.60
2022-10-22T13:17:38.809Z,3.65
2022-10-22T13:20:20.907Z,3.53
2022-10-22T13:23:02.759Z,3.25
2022-10-22T13:25:31.967Z,7.05
2022-10-22T13:28:16.432Z,365.88
2022-10-22T13:30:56.688Z,293.90
2022-10-22T13:33:32.415Z,421.13
2022-10-22T13:35:59.114Z,183.48
2022-10-22T13:38:27.505Z,697.85
2022-10-22T13:40:54.562Z,999.90
2022-10-22T13:43:21.602Z,989.72
2022-10-22T13:45:51.849Z,961.47
2022-10-22T13:48:21.947Z,932.63
2022-10-22T13:50:49.743Z,906.60
2022-10-22T13:53:20.841Z,875.05
2022-10-22T13:55:47.727Z,847.25
2022-10-22T14:00:56.935Z,788.72
2022-10-22T14:03:31.939Z,753.33
2022-10-22T14:05:58.961Z,718.20
2022-10-22T14:08:27.283Z,682.03
2022-10-22T14:10:54.969Z,647.10
2022-10-22T14:13:22.425Z,613.70
2022-10-22T14:15:51.003Z,575.38
2022-10-22T14:18:29.018Z,552.58
2022-10-22T14:20:58.332Z,517.35
2022-10-22T14:23:28.760Z,494.83
2022-10-22T14:25:56.054Z,458.73
2022-10-22T14:28:22.687Z,440.02
2022-10-22T14:30:50.460Z,412.20
2022-10-22T14:33:28.863Z,79.38
2022-10-22T14:35:59.813Z,21.05
2022-10-22T14:38:29.554Z,10.32
2022-10-22T14:40:56.595Z,7.15
2022-10-22T14:43:25.810Z,9.38
2022-10-22T14:45:52.583Z,6.97
2022-10-22T14:50:51.360Z,5.97
2022-10-22T14:53:18.059Z,8.68
2022-10-22T14:55:47.183Z,8.10
2022-10-22T14:58:15.354Z,7.75
2022-10-22T15:00:43.837Z,9.73
2022-10-22T15:03:11.569Z,6.72
2022-10-22T15:05:44.932Z,3.38
2022-10-22T15:08:13.157Z,6.18
2022-10-22T15:10:40.231Z,5.75
2022-10-22T15:13:07.132Z,4.72
2022-10-22T15:15:35.434Z,5.40
2022-10-22T15:18:04.462Z,5.10
2022-10-22T15:20:31.289Z,5.43
2022-10-22T15:22:57.876Z,4.47
2022-10-22T15:25:24.480Z,4.35
2022-10-22T15:27:52.493Z,5.38
2022-10-22T15:30:20.814Z,6.20
2022-10-22T15:32:47.618Z,8.88
2022-10-22T15:35:14.409Z,4.50
2022-10-22T15:37:41.175Z,4.50
2022-10-22T15:40:08.770Z,4.18
2022-10-22T15:42:35.905Z,3.50
2022-10-22T15:45:02.746Z,3.17
2022-10-22T15:47:31.154Z,3.53
2022-10-22T15:49:58.096Z,3.92
2022-10-22T15:52:24.777Z,3.85
2022-10-22T15:54:51.367Z,4.63
2022-10-22T15:57:18.094Z,3.67
2022-10-22T15:59:44.673Z,3.70
2022-10-22T16:02:12.798Z,3.58
2022-10-22T16:04:39.608Z,3.97
2022-10-22T16:07:06.765Z,3.45
2022-10-22T16:09:33.551Z,3.78
2022-10-22T16:12:00.846Z,3.28
2022-10-22T16:14:28.896Z,3.28
2022-10-22T16:16:58.175Z,3.92
2022-10-22T16:19:26.188Z,3.88
2022-10-22T16:21:55.517Z,3.83
2022-10-22T16:24:23.077Z,3.70
2022-10-22T16:26:49.957Z,3.72
2022-10-22T16:29:16.576Z,4.47
2022-10-22T16:31:44.038Z,4.80
2022-10-22T16:34:11.871Z,4.00
2022-10-22T16:36:39.051Z,4.53
2022-10-22T16:39:07.930Z,4.00
2022-10-22T16:41:37.397Z,3.55
2022-10-22T16:44:07.671Z,3.28
2022-10-22T16:46:38.566Z,2.85
2022-10-22T16:49:08.803Z,3.08
2022-10-22T16:51:45.396Z,3.20
2022-10-22T16:54:22.195Z,2.70
2022-10-22T16:56:50.836Z,2.70
2022-10-22T16:59:18.924Z,1.98
2022-10-22T17:01:48.605Z,2.10
2022-10-22T17:04:18.930Z,2.10
2022-10-22T17:06:51.228Z,2.67
2022-10-22T17:09:30.651Z,2.33
2022-10-22T17:12:00.113Z,3.55
2022-10-22T17:14:27.449Z,2.92
2022-10-22T17:16:56.832Z,2.53
2022-10-22T17:19:27.159Z,2.47
2022-10-22T17:21:54.586Z,2.45
2022-10-22T17:24:21.242Z,2.85
2022-10-22T17:26:47.810Z,3.72
2022-10-22T17:29:14.370Z,4.10
2022-10-22T17:31:41.395Z,4.45
2022-10-22T17:34:14.695Z,5.70
2022-10-22T17:36:42.117Z,4.32
2022-10-22T17:39:11.173Z,3.85
2022-10-22T17:41:37.839Z,4.50
2022-10-22T17:44:06.883Z,6.05
2022-10-22T17:46:33.501Z,5.53
2022-10-22T17:49:03.660Z,4.60
2022-10-22T17:51:31.231Z,5.70
2022-10-22T17:53:57.873Z,6.28
2022-10-22T17:56:27.253Z,5.00
2022-10-22T17:58:54.573Z,5.13
2022-10-22T18:01:24.973Z,4.75
2022-10-22T18:03:52.868Z,3.90
2022-10-22T18:06:19.975Z,4.07
2022-10-22T18:08:46.705Z,5.13
2022-10-22T18:11:18.301Z,5.53
2022-10-22T18:13:45.050Z,4.10
2022-10-22T18:16:12.446Z,4.00
2022-10-22T18:18:39.054Z,3.90
2022-10-22T18:21:06.114Z,4.18
2022-10-22T18:23:33.450Z,4.00
2022-10-22T18:26:00.251Z,4.82
2022-10-22T18:28:26.831Z,4.03
2022-10-22T18:30:53.457Z,3.15
2022-10-22T18:33:23.971Z,3.45
2022-10-22T18:35:54.770Z,3.47
2022-10-22T18:38:24.595Z,4.32
2022-10-22T18:40:51.147Z,2.75
2022-10-22T18:43:17.918Z,2.58
2022-10-22T18:45:48.398Z,3.50
2022-10-22T18:48:17.653Z,4.00
2022-10-22T18:50:44.934Z,2.72
2022-10-22T18:53:13.445Z,2.78
2022-10-22T18:55:40.538Z,2.75
2022-10-22T18:58:07.304Z,3.05
2022-10-22T19:00:36.033Z,2.30
2022-10-22T19:03:03.338Z,3.17
2022-10-22T19:05:30.045Z,2.75
2022-10-22T19:07:56.689Z,3.20
2022-10-22T19:10:23.467Z,2.33
2022-10-22T19:12:50.186Z,2.20
2022-10-22T19:15:18.628Z,2.35
2022-10-22T19:17:45.398Z,2.80
2022-10-22T19:20:13.185Z,3.17
2022-10-22T19:22:39.930Z,3.00
2022-10-22T19:25:09.743Z,2.53
2022-10-22T19:27:39.710Z,2.75
2022-10-22T19:30:07.404Z,3.00
2022-10-22T19:32:34.523Z,2.55
2022-10-22T19:35:01.430Z,2.25
2022-10-22T19:37:28.144Z,2.15
2022-10-22T19:39:54.906Z,3.05
2022-10-22T19:42:21.703Z,2.78
2022-10-22T19:44:54.370Z,2.03
2022-10-22T19:47:21.890Z,2.38
2022-10-22T19:49:48.488Z,2.40
2022-10-22T19:52:15.139Z,2.78
2022-10-22T19:54:44.576Z,2.15
2022-10-22T19:57:15.079Z,3.47
2022-10-22T19:59:41.755Z,7.15
2022-10-22T20:02:13.018Z,7.53
2022-10-22T20:04:40.231Z,2.60
2022-10-22T20:07:06.781Z,3.03
2022-10-22T20:09:33.396Z,2.05
2022-10-22T20:12:00.370Z,4.80
2022-10-22T20:14:26.940Z,3.20
2022-10-22T20:16:53.784Z,2.67
2022-10-22T20:19:20.522Z,2.78
2022-10-22T20:21:49.029Z,2.20
2022-10-22T20:24:16.084Z,2.53
2022-10-22T20:26:46.169Z,3.83
2022-10-22T20:29:14.820Z,2.78
2022-10-22T20:31:41.502Z,2.45
2022-10-22T20:34:09.271Z,3.03
2022-10-22T20:36:36.085Z,2.80
2022-10-22T20:39:10.362Z,2.33
2022-10-22T20:41:39.157Z,3.10
2022-10-22T20:44:06.914Z,2.90
2022-10-22T20:46:34.734Z,2.60
2022-10-22T20:49:07.133Z,2.78
2022-10-22T20:51:35.210Z,3.50
2022-10-22T20:54:02.042Z,3.03
2022-10-22T20:56:28.834Z,2.97
2022-10-22T20:59:04.708Z,2.80
2022-10-22T21:01:34.014Z,3.30
2022-10-22T21:04:00.604Z,3.13
2022-10-22T21:06:28.894Z,3.20
2022-10-22T21:08:55.617Z,3.60
2022-10-22T21:11:25.425Z,2.72
2022-10-22T21:13:52.241Z,2.65
2022-10-22T21:16:19.696Z,2.40
2022-10-22T21:18:47.198Z,2.78
2022-10-22T21:21:14.370Z,2.78
2022-10-22T21:23:40.955Z,3.40
2022-10-22T21:26:08.222Z,3.00
2022-10-22T21:28:36.773Z,2.72
2022-10-22T21:31:09.230Z,3.05
2022-10-22T21:33:39.432Z,2.55
2022-10-22T21:36:08.962Z,4.07
2022-10-22T21:38:36.800Z,2.63
2022-10-22T21:41:12.076Z,2.83
2022-10-22T21:43:40.211Z,2.58
2022-10-22T21:46:21.734Z,2.63
2022-10-22T21:48:56.127Z,3.07
2022-10-22T21:51:24.428Z,2.58
2022-10-22T21:56:21.896Z,3.35
2022-10-22T21:58:48.870Z,2.90
2022-10-22T22:01:16.620Z,2.80
2022-10-22T22:03:45.561Z,4.05
2022-10-22T22:06:13.219Z,2.72
2022-10-22T22:08:40.198Z,2.38
2022-10-22T22:11:12.638Z,2.42
2022-10-22T22:13:39.594Z,2.83
2022-10-22T22:16:21.210Z,2.42
2022-10-22T22:18:50.578Z,2.42
2022-10-22T22:21:19.443Z,2.38
2022-10-22T22:23:48.385Z,2.60
2022-10-22T22:26:17.359Z,1.85
2022-10-22T22:28:44.156Z,1.90
2022-10-22T22:31:28.491Z,2.50
2022-10-22T22:33:59.650Z,2.58
2022-10-22T22:36:26.303Z,1.98
2022-10-22T22:38:56.689Z,2.25
2022-10-22T22:41:23.385Z,2.17
2022-10-22T22:43:50.175Z,2.30
2022-10-22T22:46:17.313Z,1.98
2022-10-22T22:48:44.248Z,1.95
2022-10-22T22:51:11.262Z,2.08
2022-10-22T22:53:38.278Z,2.25
2022-10-22T22:56:10.673Z,1.95
2022-10-22T22:58:40.501Z,1.75
2022-10-22T23:01:15.212Z,2.33
2022-10-22T23:03:42.945Z,2.10
2022-10-22T23:06:09.605Z,2.05
2022-10-22T23:08:36.302Z,1.98
2022-10-22T23:11:08.913Z,2.03
2022-10-22T23:13:36.379Z,2.00
2022-10-22T23:16:13.024Z,1.95
2022-10-22T23:18:39.918Z,1.80
2022-10-22T23:21:10.686Z,2.00
2022-10-22T23:23:37.486Z,2.47
2022-10-22T23:26:04.313Z,1.90
2022-10-22T23:28:31.107Z,2.42
2022-10-22T23:30:57.728Z,2.45
2022-10-22T23:33:24.306Z,1.90
2022-10-22T23:35:51.081Z,2.55
2022-10-22T23:38:17.734Z,2.20
2022-10-22T23:40:44.319Z,2.50
2022-10-22T23:43:10.893Z,2.45
2022-10-22T23:45:37.513Z,2.30
2022-10-22T23:48:04.524Z,2.20
2022-10-22T23:50:31.196Z,2.38
2022-10-22T23:52:57.851Z,2.33
2022-10-22T23:55:24.442Z,2.75
2022-10-22T23:57:51.028Z,1.73
